createdAt,value
2022-11-18T00:01:48.419Z,62.52
2022-11-18T00:04:14.988Z,62.81
2022-11-18T00:06:41.527Z,62.99
2022-11-18T00:09:08.634Z,62.96
2022-11-18T00:11:53.589Z,62.94
2022-11-18T00:14:23.798Z,63.18
2022-11-18T00:17:00.215Z,63.15
2022-11-18T00:19:38.260Z,62.87
2022-11-18T00:22:06.459Z,62.88
2022-11-18T00:24:33.736Z,63.16
2022-11-18T00:27:00.795Z,63.06
2022-11-18T00:29:28.937Z,62.89
2022-11-18T00:31:56.172Z,62.78
2022-11-18T00:34:23.287Z,62.78
2022-11-18T00:36:50.151Z,62.89
2022-11-18T00:39:19.969Z,62.76
2022-11-18T00:42:06.057Z,62.69
2022-11-18T00:44:32.729Z,62.54
2022-11-18T00:46:59.519Z,62.40
2022-11-18T00:49:26.055Z,61.79
2022-11-18T00:51:52.691Z,62.26
2022-11-18T00:54:19.800Z,62.61
2022-11-18T00:56:46.331Z,62.40
2022-11-18T00:59:12.901Z,62.67
2022-11-18T01:01:39.505Z,62.41
2022-11-18T01:04:06.198Z,62.37
2022-11-18T01:06:32.733Z,62.47
2022-11-18T01:08:59.220Z,62.61
2022-11-18T01:11:44.746Z,62.50
2022-11-18T01:14:11.324Z,62.44
2022-11-18T01:16:37.960Z,62.64
2022-11-18T01:19:04.498Z,62.55
2022-11-18T01:21:31.054Z,62.51
2022-11-18T01:23:57.650Z,62.52
2022-11-18T01:26:24.204Z,62.62
2022-11-18T01:28:50.728Z,62.77
2022-11-18T01:31:19.391Z,62.63
2022-11-18T01:33:46.785Z,62.55
2022-11-18T01:36:27.518Z,62.76
2022-11-18T01:38:55.367Z,62.57
2022-11-18T01:41:25.380Z,62.58
2022-11-18T01:43:57.957Z,62.91
2022-11-18T01:46:27.347Z,63.00
2022-11-18T01:49:04.826Z,62.53
2022-11-18T01:51:35.041Z,63.02
2022-11-18T01:54:12.503Z,62.73
2022-11-18T01:56:45.153Z,63.15
2022-11-18T01:59:15.659Z,63.09
2022-11-18T02:01:42.536Z,62.94
2022-11-18T02:04:09.410Z,62.11
2022-11-18T02:06:36.455Z,62.48
2022-11-18T02:09:03.620Z,62.74
2022-11-18T02:11:49.807Z,62.93
2022-11-18T02:14:19.828Z,63.01
2022-11-18T02:17:09.314Z,62.73
2022-11-18T02:19:48.040Z,62.71
2022-11-18T02:22:23.455Z,62.77
2022-11-18T02:24:56.637Z,62.85
2022-11-18T02:28:00.975Z,62.63
2022-11-18T02:30:32.883Z,62.92
2022-11-18T02:33:12.366Z,63.01
2022-11-18T02:35:51.367Z,62.87
2022-11-18T02:38:29.638Z,62.51
2022-11-18T02:41:01.124Z,62.86
2022-11-18T02:43:48.686Z,62.52
2022-11-18T02:46:21.116Z,62.63
2022-11-18T02:48:50.357Z,63.19
2022-11-18T02:51:22.280Z,63.12
2022-11-18T02:53:50.482Z,63.06
2022-11-18T02:56:19.656Z,63.01
2022-11-18T02:58:46.216Z,62.69
2022-11-18T03:01:20.650Z,62.73
2022-11-18T03:03:47.893Z,63.12
2022-11-18T03:06:37.936Z,62.85
2022-11-18T03:09:28.615Z,62.70
2022-11-18T03:12:13.651Z,63.20
2022-11-18T03:15:11.457Z,62.74
2022-11-18T03:18:02.440Z,62.54
2022-11-18T03:20:42.307Z,62.80
2022-11-18T03:23:23.307Z,62.88
2022-11-18T03:25:52.900Z,63.13
2022-11-18T03:28:32.579Z,63.06
2022-11-18T03:31:06.500Z,62.91
2022-11-18T03:33:37.900Z,63.33
2022-11-18T03:36:08.424Z,63.16
2022-11-18T03:38:40.056Z,62.98
2022-11-18T03:41:10.610Z,63.17
2022-11-18T03:43:43.356Z,62.73
2022-11-18T03:46:20.592Z,62.94
2022-11-18T03:48:56.745Z,62.57
2022-11-18T03:51:30.519Z,62.70
2022-11-18T03:54:15.875Z,62.61
2022-11-18T03:56:47.341Z,62.65
2022-11-18T03:59:21.062Z,62.48
2022-11-18T04:01:53.379Z,62.79
2022-11-18T04:04:21.087Z,62.81
2022-11-18T04:07:02.552Z,62.77
2022-11-18T04:09:41.670Z,62.67
2022-11-18T04:12:13.542Z,62.61
2022-11-18T04:14:43.340Z,62.65
2022-11-18T04:17:17.951Z,62.46
2022-11-18T04:19:44.510Z,62.58
2022-11-18T04:22:11.273Z,62.39
2022-11-18T04:24:37.921Z,61.79
2022-11-18T04:27:05.955Z,62.30
2022-11-18T04:29:33.865Z,62.25
2022-11-18T04:32:01.898Z,62.36
2022-11-18T04:34:29.218Z,62.47
2022-11-18T04:36:55.762Z,62.43
2022-11-18T04:39:22.324Z,62.21
2022-11-18T04:41:58.192Z,62.21
2022-11-18T04:44:32.834Z,62.56
2022-11-18T04:47:02.263Z,62.46
2022-11-18T04:49:29.346Z,62.50
2022-11-18T04:51:57.391Z,62.54
2022-11-18T04:54:25.703Z,62.38
2022-11-18T04:56:53.234Z,62.46
2022-11-18T04:59:22.886Z,62.65
2022-11-18T05:01:50.049Z,62.29
2022-11-18T05:04:20.027Z,64.94
2022-11-18T05:06:46.975Z,66.59
2022-11-18T05:09:13.847Z,67.68
2022-11-18T05:11:59.161Z,69.18
2022-11-18T05:14:29.706Z,69.49
2022-11-18T05:16:57.993Z,66.99
2022-11-18T05:19:24.654Z,67.45
2022-11-18T05:21:51.285Z,65.72
2022-11-18T05:24:18.940Z,65.67
2022-11-18T05:26:45.770Z,64.96
2022-11-18T05:29:13.107Z,64.71
2022-11-18T05:31:59.542Z,61.61
2022-11-18T05:34:27.290Z,59.55
2022-11-18T05:36:53.882Z,60.01
2022-11-18T05:39:20.781Z,62.53
2022-11-18T05:42:06.120Z,60.51
2022-11-18T05:44:32.614Z,59.74
2022-11-18T05:47:00.258Z,59.85
2022-11-18T05:49:26.738Z,60.09
2022-11-18T05:51:53.334Z,62.12
2022-11-18T05:54:22.223Z,60.68
2022-11-18T05:56:48.929Z,60.95
2022-11-18T05:59:15.994Z,60.67
2022-11-18T06:02:03.564Z,60.79
2022-11-18T06:04:36.511Z,60.47
2022-11-18T06:07:19.818Z,60.54
2022-11-18T06:09:50.871Z,60.46
2022-11-18T06:12:23.069Z,61.99
2022-11-18T06:19:04.954Z,59.81
2022-11-18T06:24:42.705Z,58.13
2022-11-18T06:30:13.251Z,57.87
2022-11-18T06:35:52.929Z,58.64
2022-11-18T06:38:19.952Z,59.01
2022-11-18T06:40:46.858Z,58.78
2022-11-18T06:43:44.060Z,59.48
2022-11-18T06:50:19.337Z,59.87
2022-11-18T06:59:16.341Z,59.83
2022-11-18T07:04:47.789Z,60.10
2022-11-18T07:07:15.198Z,60.38
2022-11-18T07:16:47.605Z,60.42
2022-11-18T07:19:23.429Z,60.72
2022-11-18T07:21:50.961Z,60.77
2022-11-18T07:24:56.489Z,60.91
2022-11-18T07:28:13.528Z,60.76
2022-11-18T07:30:43.794Z,61.12
2022-11-18T07:33:40.513Z,61.30
2022-11-18T07:45:36.986Z,60.85
2022-11-18T07:54:36.750Z,60.94
2022-11-18T07:57:59.860Z,61.32
2022-11-18T08:03:44.788Z,61.45
2022-11-18T08:12:53.180Z,61.17
2022-11-18T08:16:24.724Z,61.37
2022-11-18T08:19:21.009Z,61.55
2022-11-18T08:21:52.541Z,61.27
2022-11-18T08:27:07.217Z,61.51
2022-11-18T08:29:55.380Z,61.32
2022-11-18T08:32:23.056Z,61.20
2022-11-18T08:37:32.448Z,61.22
2022-11-18T08:40:03.127Z,61.40
2022-11-18T08:42:45.210Z,61.13
2022-11-18T08:57:58.983Z,61.26
2022-11-18T09:00:27.241Z,61.62
2022-11-18T09:55:48.029Z,60.99
2022-11-18T10:03:00.342Z,61.49
2022-11-18T10:17:33.610Z,61.50
2022-11-18T10:24:56.574Z,61.37
2022-11-18T10:31:31.763Z,61.05
2022-11-18T10:38:06.361Z,60.85
2022-11-18T10:59:50.303Z,60.62
2022-11-18T11:06:42.448Z,60.63
2022-11-18T11:10:35.355Z,60.89
2022-11-18T11:29:43.596Z,60.33
2022-11-18T11:32:32.029Z,60.76
2022-11-18T11:35:23.411Z,60.48
2022-11-18T11:37:55.139Z,60.15
2022-11-18T11:40:30.772Z,60.66
2022-11-18T11:43:15.800Z,60.52
2022-11-18T11:45:47.883Z,60.98
2022-11-18T11:48:22.025Z,60.88
2022-11-18T11:51:01.916Z,60.52
2022-11-18T11:53:49.054Z,60.23
2022-11-18T11:56:40.380Z,60.52
2022-11-18T11:59:22.234Z,60.49
2022-11-18T12:02:15.005Z,60.39
2022-11-18T12:04:53.369Z,60.45
2022-11-18T12:07:24.636Z,60.37
2022-11-18T12:09:56.472Z,60.42
2022-11-18T12:12:43.930Z,60.31
2022-11-18T12:15:26.094Z,60.61
2022-11-18T12:17:55.986Z,60.68
2022-11-18T12:20:44.945Z,60.59
2022-11-18T12:23:29.239Z,60.67
2022-11-18T12:26:08.637Z,60.76
2022-11-18T12:28:45.356Z,61.18
2022-11-18T12:31:17.783Z,61.15
2022-11-18T12:33:59.044Z,60.82
2022-11-18T12:36:35.917Z,60.98
2022-11-18T12:39:24.590Z,60.67
2022-11-18T12:42:17.130Z,60.56
2022-11-18T12:44:47.766Z,60.58
2022-11-18T12:47:17.260Z,60.87
2022-11-18T12:49:46.984Z,61.06
2022-11-18T12:52:34.474Z,60.80
2022-11-18T12:55:04.556Z,61.04
2022-11-18T12:57:34.256Z,60.92
2022-11-18T13:00:33.028Z,60.65
2022-11-18T13:03:01.720Z,60.71
2022-11-18T13:05:32.707Z,61.06
2022-11-18T13:08:18.062Z,60.78
2022-11-18T13:11:23.237Z,61.04
2022-11-18T13:14:12.072Z,60.50
2022-11-18T13:16:58.479Z,60.42
2022-11-18T13:19:25.992Z,59.85
2022-11-18T13:22:16.299Z,60.34
2022-11-18T13:24:50.597Z,59.70
2022-11-18T13:27:42.016Z,60.16
2022-11-18T13:30:13.424Z,59.84
2022-11-18T13:32:48.146Z,60.00
2022-11-18T13:35:18.435Z,59.79
2022-11-18T13:38:08.300Z,59.96
2022-11-18T13:41:04.702Z,59.37
2022-11-18T13:43:32.471Z,59.48
2022-11-18T13:46:02.637Z,59.32
2022-11-18T13:48:31.181Z,59.41
2022-11-18T13:51:00.692Z,59.84
2022-11-18T13:53:37.204Z,59.70
2022-11-18T13:56:08.296Z,59.96
2022-11-18T13:59:15.844Z,59.94
2022-11-18T14:01:32.432Z,60.19
2022-11-18T14:04:05.569Z,60.09
2022-11-18T14:06:38.577Z,59.78
2022-11-18T14:09:11.173Z,59.57
2022-11-18T14:11:41.549Z,59.66
2022-11-18T14:14:10.437Z,59.91
2022-11-18T14:16:39.329Z,59.82
2022-11-18T14:19:06.846Z,60.00
2022-11-18T14:21:40.655Z,59.71
2022-11-18T14:24:14.667Z,59.71
2022-11-18T14:26:41.389Z,59.78
2022-11-18T14:29:23.465Z,59.89
2022-11-18T14:32:04.899Z,59.89
2022-11-18T14:34:31.728Z,59.69
2022-11-18T14:36:58.210Z,59.77
2022-11-18T14:39:27.682Z,59.67
2022-11-18T14:41:55.006Z,59.62
2022-11-18T14:44:24.465Z,59.75
2022-11-18T14:47:05.166Z,59.99
2022-11-18T14:49:32.948Z,59.97
2022-11-18T14:52:02.800Z,59.79
2022-11-18T14:54:29.907Z,59.84
2022-11-18T14:57:01.271Z,59.79
2022-11-18T14:59:27.963Z,59.75
2022-11-18T15:01:55.019Z,59.76
2022-11-18T15:04:22.395Z,59.25
2022-11-18T15:06:49.439Z,59.28
2022-11-18T15:09:16.530Z,59.41
2022-11-18T15:11:43.239Z,59.57
2022-11-18T15:14:09.863Z,59.73
2022-11-18T15:16:36.576Z,59.36
2022-11-18T15:19:05.200Z,59.52
2022-11-18T15:21:32.530Z,59.61
2022-11-18T15:23:59.397Z,59.63
2022-11-18T15:26:37.334Z,59.70
2022-11-18T15:29:04.872Z,58.89
2022-11-18T15:31:31.603Z,58.85
2022-11-18T15:34:03.491Z,59.00
2022-11-18T15:36:31.851Z,58.98
2022-11-18T15:38:58.600Z,58.76
2022-11-18T15:41:27.705Z,58.55
2022-11-18T15:43:55.792Z,58.61
2022-11-18T15:46:24.135Z,59.00
2022-11-18T15:48:54.984Z,59.15
2022-11-18T15:51:21.711Z,59.30
2022-11-18T15:53:48.349Z,58.88
2022-11-18T15:56:24.123Z,59.05
2022-11-18T15:58:58.032Z,59.11
2022-11-18T16:01:30.193Z,59.33
2022-11-18T16:03:57.520Z,59.29
2022-11-18T16:06:24.737Z,59.62
2022-11-18T16:08:57.645Z,59.78
2022-11-18T16:11:45.072Z,59.37
2022-11-18T16:14:13.744Z,59.64
2022-11-18T16:16:41.708Z,59.35
2022-11-18T16:19:11.642Z,59.49
2022-11-18T16:21:41.195Z,59.46
2022-11-18T16:24:10.863Z,59.04
2022-11-18T16:26:37.816Z,58.99
2022-11-18T16:29:07.282Z,59.00
2022-11-18T16:31:40.698Z,58.76
2022-11-18T16:34:16.407Z,59.06
2022-11-18T16:36:52.245Z,58.67
2022-11-18T16:39:25.755Z,58.85
2022-11-18T16:41:54.479Z,58.94
2022-11-18T16:44:21.255Z,58.95
2022-11-18T16:47:13.694Z,58.84
2022-11-18T16:49:42.863Z,59.20
2022-11-18T16:52:09.491Z,58.86
2022-11-18T16:54:42.867Z,59.27
2022-11-18T16:57:11.340Z,59.49
2022-11-18T16:59:38.068Z,59.34
2022-11-18T17:02:06.522Z,59.11
2022-11-18T17:04:35.425Z,59.25
2022-11-18T17:07:02.345Z,59.52
2022-11-18T17:09:28.975Z,59.16
2022-11-18T17:11:56.514Z,58.92
2022-11-18T17:14:23.578Z,59.01
2022-11-18T17:16:51.511Z,58.84
2022-11-18T17:19:20.966Z,59.05
2022-11-18T17:21:48.244Z,58.89
2022-11-18T17:24:17.597Z,58.34
2022-11-18T17:26:45.495Z,58.39
2022-11-18T17:29:13.070Z,58.75
2022-11-18T17:31:41.035Z,58.78
2022-11-18T17:34:11.833Z,58.89
2022-11-18T17:36:38.587Z,58.63
2022-11-18T17:39:05.138Z,58.76
2022-11-18T17:41:50.531Z,58.87
2022-11-18T17:44:17.991Z,58.76
2022-11-18T17:46:47.341Z,59.14
2022-11-18T17:49:19.425Z,58.96
2022-11-18T17:51:46.322Z,58.88
2022-11-18T17:54:14.377Z,58.87
2022-11-18T17:56:41.297Z,58.92
2022-11-18T17:59:08.044Z,58.78
2022-11-18T18:01:34.534Z,58.75
2022-11-18T18:04:01.308Z,58.79
2022-11-18T18:06:27.931Z,58.72
2022-11-18T18:08:58.780Z,58.98
2022-11-18T18:11:26.738Z,58.66
2022-11-18T18:14:12.254Z,58.70
2022-11-18T18:16:46.580Z,58.74
2022-11-18T18:19:18.760Z,58.80
2022-11-18T18:21:45.636Z,58.97
2022-11-18T18:24:14.788Z,58.86
2022-11-18T18:26:42.118Z,59.03
2022-11-18T18:29:08.724Z,58.89
2022-11-18T18:31:37.136Z,58.93
2022-11-18T18:34:04.396Z,58.85
2022-11-18T18:36:31.181Z,58.56
2022-11-18T18:38:58.744Z,58.62
2022-11-18T18:41:25.365Z,58.58
2022-11-18T18:43:51.889Z,58.46
2022-11-18T18:46:31.045Z,58.42
2022-11-18T18:49:09.992Z,58.30
2022-11-18T18:51:39.660Z,58.29
2022-11-18T18:54:07.500Z,57.73
2022-11-18T18:56:34.282Z,57.96
2022-11-18T18:59:01.109Z,58.30
2022-11-18T19:01:28.606Z,57.92
2022-11-18T19:04:01.056Z,57.95
2022-11-18T19:09:17.544Z,57.54
2022-11-18T19:12:03.389Z,58.03
2022-11-18T19:14:30.089Z,57.95
2022-11-18T19:16:57.533Z,57.75
2022-11-18T19:19:45.165Z,57.92
2022-11-18T19:22:14.057Z,57.64
2022-11-18T19:24:49.830Z,57.68
2022-11-18T19:27:17.973Z,57.22
2022-11-18T19:29:44.648Z,57.32
2022-11-18T19:32:11.241Z,57.10
2022-11-18T19:34:37.846Z,57.42
2022-11-18T19:37:04.707Z,57.29
2022-11-18T19:39:31.263Z,57.65
2022-11-18T19:41:58.015Z,57.23
2022-11-18T19:44:24.529Z,57.70
2022-11-18T19:46:51.073Z,57.29
2022-11-18T19:49:17.881Z,57.70
2022-11-18T19:51:44.785Z,58.06
2022-11-18T19:54:11.395Z,57.78
2022-11-18T19:56:37.966Z,57.34
2022-11-18T19:59:04.565Z,57.42
2022-11-18T20:01:32.120Z,57.26
2022-11-18T20:04:03.152Z,57.15
2022-11-18T20:06:30.218Z,57.05
2022-11-18T20:08:57.775Z,57.31
2022-11-18T20:11:24.879Z,57.21
2022-11-18T20:13:51.890Z,56.97
2022-11-18T20:16:19.899Z,57.39
2022-11-18T20:18:48.889Z,57.37
2022-11-18T20:21:21.913Z,56.93
2022-11-18T20:23:51.227Z,57.13
2022-11-18T20:26:21.151Z,57.20
2022-11-18T20:28:52.949Z,57.51
2022-11-18T20:31:23.304Z,57.28
2022-11-18T20:33:52.050Z,57.37
2022-11-18T20:36:24.137Z,57.24
2022-11-18T20:38:56.773Z,56.82
2022-11-18T20:41:24.615Z,57.16
2022-11-18T20:43:51.884Z,57.00
2022-11-18T20:46:21.453Z,56.75
2022-11-18T20:48:49.539Z,56.58
2022-11-18T20:51:19.556Z,56.95
2022-11-18T20:53:46.523Z,56.88
2022-11-18T20:56:18.311Z,57.15
2022-11-18T20:58:45.461Z,56.77
2022-11-18T21:01:16.576Z,56.71
2022-11-18T21:03:48.855Z,57.00
2022-11-18T21:06:15.726Z,56.83
2022-11-18T21:08:42.751Z,57.43
2022-11-18T21:11:11.419Z,57.05
2022-11-18T21:13:57.222Z,56.91
2022-11-18T21:16:24.677Z,57.09
2022-11-18T21:18:51.336Z,57.19
2022-11-18T21:21:36.499Z,57.10
2022-11-18T21:24:03.616Z,56.97
2022-11-18T21:26:32.586Z,56.75
2022-11-18T21:29:01.724Z,56.77
2022-11-18T21:31:29.206Z,57.03
2022-11-18T21:33:56.371Z,56.81
2022-11-18T21:36:24.363Z,56.70
2022-11-18T21:38:51.035Z,57.02
2022-11-18T21:41:18.015Z,57.17
2022-11-18T21:44:04.327Z,57.13
2022-11-18T21:46:31.552Z,57.06
2022-11-18T21:49:00.387Z,56.67
2022-11-18T21:51:27.488Z,56.84
2022-11-18T21:53:54.516Z,56.43
2022-11-18T21:56:23.743Z,56.65
2022-11-18T21:58:51.346Z,56.49
2022-11-18T22:01:25.997Z,56.51
2022-11-18T22:03:55.882Z,56.65
2022-11-18T23:29:52.636Z,57.01
2022-11-18T23:32:19.305Z,56.74
2022-11-18T23:34:46.188Z,56.72
2022-11-18T23:37:12.713Z,57.56
2022-11-18T23:39:39.445Z,56.62
2022-11-18T23:42:06.543Z,57.43
2022-11-18T23:44:53.617Z,56.99
2022-11-18T23:47:20.395Z,56.63
2022-11-18T23:49:46.989Z,57.41
2022-11-18T23:52:14.998Z,56.57
2022-11-18T23:54:41.821Z,56.51
2022-11-18T23:57:08.533Z,57.14
2022-11-18T23:59:35.550Z,56.64
